Ghanzi, Botswana
Current Conditions -  °F | °C
As of 6:00 AM on Wednesday 28 Jan 2015 (Local Time) from FYGF Reporting Station
Rain Showers Rain Showers  
Wind Chill: 72°   Ceiling: Unl
Heat Index: 72°   Visibility: 6mi
Dew Point: 55°   Wind: 10mph
Humidity: 57%   Direction: 230°SW
Pressure: 30.06"   Gusts: NA
Location:  21.7°S, 21.64°E
Report Text: FYGF 280400Z 23009KT 9999 VCSH FEW030CB SCT090 22/13 Q1018
Loading
Personal Weather Stations






























Interactive Weather Map New forecast layout! Learn more

10-Day Weather Forecast

Advertisements
Track Severe Weather on mobile